createdAt,value
2018-01-05T00:01:28.390Z,4.73
2018-01-05T00:03:57.517Z,4.00
2018-01-05T00:06:25.916Z,4.23
2018-01-05T00:08:54.956Z,4.60
2018-01-05T00:11:23.774Z,4.23
2018-01-05T00:13:52.142Z,3.40
2018-01-05T00:16:20.667Z,3.80
2018-01-05T00:18:49.793Z,3.73
2018-01-05T00:21:18.104Z,3.43
2018-01-05T00:23:46.955Z,4.47
2018-01-05T00:26:16.072Z,4.50
2018-01-05T00:28:44.955Z,3.50
2018-01-05T00:31:13.407Z,4.53
2018-01-05T00:33:42.544Z,3.13
2018-01-05T00:36:11.540Z,5.07
2018-01-05T00:38:39.910Z,3.53
2018-01-05T00:41:09.281Z,2.83
2018-01-05T00:43:37.901Z,2.40
2018-01-05T00:46:06.313Z,3.93
2018-01-05T00:48:34.696Z,4.70
2018-01-05T00:51:03.192Z,3.40
2018-01-05T00:53:32.127Z,4.97
2018-01-05T00:56:00.800Z,4.23
2018-01-05T00:58:29.121Z,5.80
2018-01-05T01:00:58.599Z,3.63
2018-01-05T01:03:27.573Z,3.83
2018-01-05T01:05:55.891Z,4.30
2018-01-05T01:08:24.984Z,3.77
2018-01-05T01:10:54.216Z,4.30
2018-01-05T01:13:22.807Z,4.43
2018-01-05T01:15:51.409Z,3.30
2018-01-05T01:18:20.463Z,2.90
2018-01-05T01:20:49.264Z,3.80
2018-01-05T01:23:18.004Z,3.13
2018-01-05T01:25:46.329Z,6.43
2018-01-05T01:28:14.648Z,4.27
2018-01-05T01:30:44.212Z,3.70
2018-01-05T01:33:13.441Z,3.27
2018-01-05T01:35:41.883Z,3.37
2018-01-05T01:38:10.703Z,3.07
2018-01-05T01:40:39.044Z,3.30
2018-01-05T01:43:07.388Z,4.27
2018-01-05T01:45:36.564Z,2.90
2018-01-05T01:48:04.879Z,3.00
2018-01-05T01:50:33.232Z,3.17
2018-01-05T01:53:02.237Z,3.30
2018-01-05T01:55:30.579Z,3.77
2018-01-05T01:57:58.888Z,3.33
2018-01-05T02:00:27.779Z,4.07
2018-01-05T02:02:56.784Z,3.20
2018-01-05T02:05:25.096Z,4.00
2018-01-05T02:07:54.359Z,5.03
2018-01-05T02:10:22.684Z,3.93
2018-01-05T02:12:51.715Z,4.87
2018-01-05T02:15:20.752Z,4.70
2018-01-05T02:17:49.770Z,3.47
2018-01-05T02:20:18.093Z,3.47
2018-01-05T02:22:47.112Z,4.20
2018-01-05T02:25:15.441Z,3.50
2018-01-05T02:27:44.652Z,5.30
2018-01-05T02:30:13.921Z,4.40
2018-01-05T02:32:43.607Z,5.33
2018-01-05T02:35:11.952Z,5.07
2018-01-05T02:37:41.761Z,4.63
2018-01-05T02:40:10.381Z,4.30
2018-01-05T02:42:38.721Z,5.07
2018-01-05T02:45:07.388Z,3.73
2018-01-05T02:47:36.608Z,5.40
2018-01-05T02:50:05.988Z,5.30
2018-01-05T02:52:34.334Z,5.00
2018-01-05T02:55:03.888Z,5.03
2018-01-05T02:57:32.815Z,4.20
2018-01-05T03:00:01.263Z,4.37
2018-01-05T03:02:30.012Z,5.50
2018-01-05T03:04:58.502Z,4.77
2018-01-05T03:07:26.980Z,4.33
2018-01-05T03:09:55.843Z,3.70
2018-01-05T03:12:24.165Z,5.30
2018-01-05T03:14:52.553Z,4.30
2018-01-05T03:17:21.517Z,3.30
2018-01-05T03:19:49.821Z,2.90
2018-01-05T03:22:18.596Z,2.70
2018-01-05T03:24:47.192Z,3.73
2018-01-05T03:27:16.458Z,2.67
2018-01-05T03:29:45.508Z,3.30
2018-01-05T03:32:14.235Z,2.90
2018-01-05T03:34:42.972Z,3.70
2018-01-05T03:37:12.701Z,5.63
2018-01-05T03:39:41.712Z,3.77
2018-01-05T03:42:10.020Z,3.30
2018-01-05T03:44:38.379Z,2.57
2018-01-05T03:47:07.377Z,4.00
2018-01-05T03:49:37.775Z,3.27
2018-01-05T03:52:07.242Z,2.87
2018-01-05T03:54:35.540Z,3.03
2018-01-05T03:57:03.852Z,3.20
2018-01-05T03:59:32.916Z,3.13
2018-01-05T04:02:01.964Z,2.60
2018-01-05T04:04:30.439Z,3.37
2018-01-05T04:06:58.829Z,2.93
2018-01-05T04:09:27.755Z,3.67
2018-01-05T04:11:57.156Z,3.70
2018-01-05T04:14:25.900Z,3.40
2018-01-05T04:16:54.981Z,3.23
2018-01-05T04:19:23.491Z,2.67
2018-01-05T04:21:52.415Z,3.70
2018-01-05T04:24:21.196Z,3.97
2018-01-05T04:26:49.665Z,3.30
2018-01-05T04:29:18.024Z,4.53
2018-01-05T04:31:47.055Z,3.47
2018-01-05T04:34:15.968Z,3.30
2018-01-05T04:36:44.420Z,3.63
2018-01-05T04:39:13.467Z,3.80
2018-01-05T04:41:43.364Z,3.63
2018-01-05T04:44:12.520Z,3.33
2018-01-05T04:46:42.350Z,3.20
2018-01-05T04:49:10.692Z,2.13
2018-01-05T04:51:39.057Z,3.03
2018-01-05T04:54:07.211Z,4.40
2018-01-05T04:56:35.528Z,2.27
2018-01-05T04:59:04.007Z,2.40
2018-01-05T05:01:32.862Z,2.33
2018-01-05T05:04:01.200Z,2.90
2018-01-05T05:06:29.568Z,2.47
2018-01-05T05:08:58.507Z,3.17
2018-01-05T05:11:26.928Z,3.53
2018-01-05T05:13:55.791Z,2.90
2018-01-05T05:16:24.096Z,2.40
2018-01-05T05:18:52.475Z,2.27
2018-01-05T05:21:20.844Z,1.93
2018-01-05T05:23:49.825Z,2.63
2018-01-05T05:26:18.234Z,2.67
2018-01-05T05:28:47.351Z,2.77
2018-01-05T05:31:16.447Z,2.23
2018-01-05T05:33:45.416Z,2.77
2018-01-05T05:36:13.728Z,2.30
2018-01-05T05:38:42.915Z,2.30
2018-01-05T05:41:11.224Z,2.33
2018-01-05T05:43:40.770Z,2.40
2018-01-05T05:46:10.085Z,5.73
2018-01-05T05:48:38.464Z,2.67
2018-01-05T05:51:06.780Z,2.40
2018-01-05T05:53:35.907Z,2.00
2018-01-05T05:56:04.780Z,2.37
2018-01-05T05:58:33.879Z,2.33
2018-01-05T06:01:03.015Z,4.47
2018-01-05T06:03:33.069Z,2.07
2018-01-05T06:06:02.049Z,2.50
2018-01-05T06:08:31.271Z,4.03
2018-01-05T06:11:00.340Z,3.20
2018-01-05T06:13:29.440Z,2.37
2018-01-05T06:15:57.960Z,2.27
2018-01-05T06:18:26.808Z,2.40
2018-01-05T06:20:55.804Z,2.03
2018-01-05T06:23:24.237Z,2.70
2018-01-05T06:25:52.644Z,1.97
2018-01-05T06:28:21.491Z,2.00
2018-01-05T06:30:50.692Z,1.83
2018-01-05T06:33:19.003Z,2.80
2018-01-05T06:35:48.439Z,2.73
2018-01-05T06:38:17.812Z,2.57
2018-01-05T06:40:45.960Z,2.27
2018-01-05T06:43:14.311Z,2.37
2018-01-05T06:45:43.584Z,2.80
2018-01-05T06:48:12.464Z,2.57
2018-01-05T06:50:40.780Z,2.70
2018-01-05T06:53:09.466Z,2.13
2018-01-05T06:55:39.796Z,4.20
2018-01-05T06:58:08.125Z,3.40
2018-01-05T07:00:36.517Z,3.10
2018-01-05T07:03:05.453Z,3.70
2018-01-05T07:05:33.791Z,3.13
2018-01-05T07:08:02.879Z,4.60
2018-01-05T07:10:31.187Z,2.10
2018-01-05T07:13:00.172Z,3.33
2018-01-05T07:15:28.553Z,3.23
2018-01-05T07:17:57.853Z,2.70
2018-01-05T07:20:26.826Z,3.00
2018-01-05T07:22:55.891Z,3.60
2018-01-05T07:25:24.340Z,2.83
2018-01-05T07:27:53.260Z,2.33
2018-01-05T07:30:22.447Z,2.13
2018-01-05T07:32:50.956Z,2.40
2018-01-05T07:35:19.271Z,2.90
2018-01-05T07:37:48.760Z,3.93
2018-01-05T07:40:17.327Z,3.67
2018-01-05T07:42:46.059Z,2.70
2018-01-05T07:45:14.377Z,2.13
2018-01-05T07:47:42.776Z,2.80
2018-01-05T07:50:11.427Z,3.03
2018-01-05T07:52:40.051Z,2.27
2018-01-05T07:55:08.708Z,2.93
2018-01-05T07:57:37.363Z,1.90
2018-01-05T08:00:05.815Z,2.10
2018-01-05T08:02:35.132Z,2.07
2018-01-05T08:05:03.848Z,2.13
2018-01-05T08:07:32.169Z,1.47
2018-01-05T08:10:01.108Z,2.33
2018-01-05T08:12:29.471Z,2.97
2018-01-05T08:14:57.794Z,2.23
2018-01-05T08:17:26.195Z,2.40
2018-01-05T08:19:54.791Z,1.83
2018-01-05T08:22:23.949Z,1.90
2018-01-05T08:24:52.932Z,1.80
2018-01-05T08:27:21.756Z,2.33
2018-01-05T08:29:50.683Z,2.63
2018-01-05T08:32:19.033Z,3.00
2018-01-05T08:34:48.060Z,2.70
2018-01-05T08:37:16.510Z,3.07
2018-01-05T08:39:44.964Z,2.63
2018-01-05T08:42:13.763Z,2.90
2018-01-05T08:44:42.076Z,2.60
2018-01-05T08:47:13.418Z,2.50
2018-01-05T08:49:42.841Z,3.33
2018-01-05T08:52:11.536Z,3.00
2018-01-05T08:54:40.588Z,2.70
2018-01-05T08:57:09.027Z,3.13
2018-01-05T08:59:38.083Z,2.20
2018-01-05T09:02:07.216Z,1.70
2018-01-05T09:04:36.388Z,1.67
2018-01-05T09:07:04.711Z,1.63
2018-01-05T09:09:33.892Z,1.40
2018-01-05T09:12:02.328Z,2.10
2018-01-05T09:14:31.136Z,2.00
2018-01-05T09:17:01.239Z,2.47
2018-01-05T09:19:29.564Z,2.03
2018-01-05T09:21:58.356Z,2.10
2018-01-05T09:24:26.916Z,1.80
2018-01-05T09:26:55.804Z,1.80
2018-01-05T09:29:25.388Z,2.27
2018-01-05T09:31:54.932Z,1.50
2018-01-05T09:34:23.728Z,2.27
2018-01-05T09:36:52.176Z,1.87
2018-01-05T09:39:21.388Z,1.80
2018-01-05T09:41:49.712Z,1.77
2018-01-05T09:44:18.602Z,1.70
2018-01-05T09:46:46.974Z,1.97
2018-01-05T09:49:16.019Z,2.30
2018-01-05T09:51:44.345Z,1.87
2018-01-05T09:54:12.793Z,1.80
2018-01-05T09:56:41.161Z,2.17
2018-01-05T09:59:09.860Z,2.43
2018-01-05T10:01:38.247Z,1.97
2018-01-05T10:04:07.319Z,1.77
2018-01-05T10:06:36.427Z,1.77
2018-01-05T10:09:04.801Z,2.00
2018-01-05T10:11:33.948Z,2.63
2018-01-05T10:14:02.263Z,1.90
2018-01-05T10:16:31.360Z,2.27
2018-01-05T10:19:00.310Z,2.33
2018-01-05T10:21:29.573Z,2.77
2018-01-05T10:23:57.954Z,4.03
2018-01-05T10:26:26.743Z,4.90
2018-01-05T10:28:55.936Z,2.23
2018-01-05T10:31:24.999Z,2.73
2018-01-05T10:33:54.240Z,3.27
2018-01-05T10:36:23.267Z,4.30
2018-01-05T10:38:52.356Z,3.17
2018-01-05T10:41:21.300Z,2.47
2018-01-05T10:43:50.440Z,2.00
2018-01-05T10:46:18.790Z,2.73
2018-01-05T10:48:47.807Z,2.17
2018-01-05T10:51:16.275Z,2.80
2018-01-05T10:53:45.304Z,4.43
2018-01-05T10:56:14.472Z,4.03
2018-01-05T10:58:43.389Z,4.73
2018-01-05T11:01:11.900Z,4.23
2018-01-05T11:03:40.872Z,3.70
2018-01-05T11:06:09.964Z,4.60
2018-01-05T11:08:39.060Z,6.23
2018-01-05T11:11:08.010Z,5.27
2018-01-05T11:13:36.468Z,4.90
2018-01-05T11:16:05.352Z,3.70
2018-01-05T11:18:33.774Z,4.23
2018-01-05T11:21:02.832Z,3.27
2018-01-05T11:23:31.908Z,3.90
2018-01-05T11:26:06.215Z,3.67
2018-01-05T11:28:35.924Z,3.23
2018-01-05T11:31:04.872Z,2.30
2018-01-05T11:33:34.929Z,2.70
2018-01-05T11:36:03.671Z,2.70
2018-01-05T11:38:32.143Z,1.77
2018-01-05T11:41:00.820Z,2.00
2018-01-05T11:43:29.547Z,3.03
2018-01-05T11:45:57.880Z,2.60
2018-01-05T11:48:27.096Z,2.10
2018-01-05T11:50:56.001Z,2.60
2018-01-05T11:53:24.420Z,2.83
2018-01-05T11:55:54.123Z,2.90
2018-01-05T11:58:22.447Z,2.90
2018-01-05T12:00:52.439Z,2.83
2018-01-05T12:03:21.491Z,2.50
2018-01-05T12:05:49.803Z,3.10
2018-01-05T12:08:18.171Z,3.37
2018-01-05T12:10:47.168Z,3.20
2018-01-05T12:13:15.491Z,2.67
2018-01-05T12:15:44.192Z,3.57
2018-01-05T12:18:12.985Z,1.90
2018-01-05T12:20:41.890Z,2.30
2018-01-05T12:23:11.313Z,4.40
2018-01-05T12:25:40.427Z,2.23
2018-01-05T12:28:09.097Z,2.63
2018-01-05T12:30:37.410Z,3.70
2018-01-05T12:33:06.914Z,2.73
2018-01-05T12:35:35.223Z,2.73
2018-01-05T12:38:04.099Z,3.40
2018-01-05T12:40:32.471Z,3.60
2018-01-05T12:43:01.509Z,3.37
2018-01-05T12:45:29.824Z,4.00
2018-01-05T12:47:58.894Z,4.17
2018-01-05T12:50:27.930Z,3.20
2018-01-05T12:52:56.244Z,3.90
2018-01-05T12:55:24.724Z,3.83
2018-01-05T12:57:53.032Z,4.70
2018-01-05T13:00:21.504Z,3.67
2018-01-05T13:02:50.157Z,3.50
2018-01-05T13:05:18.476Z,3.40
2018-01-05T13:07:47.492Z,1.50
2018-01-05T13:10:15.855Z,1.20
2018-01-05T13:12:44.924Z,1.97
2018-01-05T13:15:13.322Z,1.30
2018-01-05T13:17:42.145Z,1.63
2018-01-05T13:20:10.515Z,1.60
2018-01-05T13:22:38.838Z,1.30
2018-01-05T13:25:07.965Z,2.27
2018-01-05T13:27:37.044Z,1.63
2018-01-05T13:30:06.108Z,1.60
2018-01-05T13:32:34.585Z,2.10
2018-01-05T13:35:02.896Z,2.50
2018-01-05T13:37:31.288Z,2.37
2018-01-05T13:40:00.067Z,4.70
2018-01-05T13:42:29.124Z,3.20
2018-01-05T13:44:57.720Z,3.70
2018-01-05T13:47:26.085Z,2.73
2018-01-05T13:49:54.747Z,3.63
2018-01-05T13:52:27.169Z,3.80
2018-01-05T13:54:55.572Z,5.33
2018-01-05T13:57:24.496Z,4.60
2018-01-05T13:59:53.746Z,5.20
2018-01-05T14:02:22.168Z,6.03
2018-01-05T14:04:50.495Z,6.63
2018-01-05T14:07:19.452Z,4.97
2018-01-05T14:09:48.404Z,5.17
2018-01-05T14:12:17.436Z,5.10
2018-01-05T14:14:45.845Z,5.47
2018-01-05T14:17:14.809Z,6.00
2018-01-05T14:19:43.213Z,4.83
2018-01-05T14:22:12.354Z,5.93
2018-01-05T14:24:41.451Z,22.47
2018-01-05T14:27:10.300Z,17.80
2018-01-05T14:29:38.689Z,18.20
2018-01-05T14:32:07.104Z,14.43
2018-01-05T14:34:35.432Z,11.83
2018-01-05T14:37:03.772Z,10.67
2018-01-05T14:39:32.568Z,9.50
2018-01-05T14:42:01.023Z,8.80
2018-01-05T14:44:30.064Z,8.80
2018-01-05T14:46:58.402Z,7.73
2018-01-05T14:49:27.391Z,8.80
2018-01-05T14:51:56.896Z,7.30
2018-01-05T14:54:25.835Z,6.70
2018-01-05T14:56:54.206Z,8.70
2018-01-05T14:59:22.540Z,10.83
2018-01-05T15:01:51.632Z,8.77
2018-01-05T15:04:20.173Z,5.77
2018-01-05T15:06:48.474Z,5.47
2018-01-05T15:09:17.809Z,4.60
2018-01-05T15:11:46.905Z,5.00
2018-01-05T15:14:15.820Z,5.70
2018-01-05T15:16:44.175Z,5.67
2018-01-05T15:19:13.192Z,5.90
2018-01-05T15:21:41.747Z,8.70
2018-01-05T15:24:10.459Z,5.97
2018-01-05T15:26:38.768Z,6.40
2018-01-05T15:29:07.104Z,6.50
2018-01-05T15:31:35.580Z,5.73
2018-01-05T15:34:03.888Z,6.47
2018-01-05T15:36:32.186Z,6.20
2018-01-05T15:39:01.103Z,4.20
2018-01-05T15:41:29.492Z,6.70
2018-01-05T15:43:58.452Z,3.30
2018-01-05T15:46:27.346Z,3.47
2018-01-05T15:48:55.652Z,3.90
2018-01-05T15:51:25.908Z,2.60
2018-01-05T15:53:54.865Z,2.27
2018-01-05T15:56:24.046Z,2.40
2018-01-05T15:58:54.742Z,2.03
2018-01-05T16:01:23.780Z,2.30
2018-01-05T16:03:52.813Z,1.93
2018-01-05T16:06:22.150Z,2.23
2018-01-05T16:08:50.543Z,2.40
2018-01-05T16:11:18.860Z,1.87
2018-01-05T16:13:47.694Z,1.23
2018-01-05T16:16:16.744Z,2.07
2018-01-05T16:18:45.808Z,2.50
2018-01-05T16:21:14.218Z,4.10
2018-01-05T16:23:43.076Z,2.50
2018-01-05T16:26:11.408Z,2.87
2018-01-05T16:28:39.877Z,5.17
2018-01-05T16:31:08.781Z,2.33
2018-01-05T16:33:37.527Z,2.33
2018-01-05T16:36:05.897Z,4.60
2018-01-05T16:38:34.216Z,5.80
2018-01-05T16:41:02.534Z,2.97
2018-01-05T16:43:30.905Z,3.50
2018-01-05T16:45:59.839Z,3.37
2018-01-05T16:48:28.753Z,2.93
2018-01-05T16:50:57.101Z,3.57
2018-01-05T16:53:25.561Z,4.60
2018-01-05T16:55:54.726Z,4.73
2018-01-05T16:58:23.908Z,4.97
2018-01-05T17:00:52.228Z,4.90
2018-01-05T17:03:20.906Z,4.60
2018-01-05T17:05:49.399Z,3.67
2018-01-05T17:08:17.823Z,3.73
2018-01-05T17:10:46.303Z,5.20
2018-01-05T17:13:15.156Z,6.03
2018-01-05T17:15:43.895Z,5.50
2018-01-05T17:18:12.647Z,6.33
2018-01-05T17:20:41.843Z,5.23
2018-01-05T17:23:10.699Z,5.30
2018-01-05T17:25:39.647Z,4.50
2018-01-05T17:28:08.126Z,4.60
2018-01-05T17:30:36.457Z,16.03
2018-01-05T17:33:04.872Z,9.73
2018-01-05T17:35:33.190Z,7.93
2018-01-05T17:38:02.020Z,15.20
2018-01-05T17:40:30.357Z,13.60
2018-01-05T17:42:58.766Z,11.10
2018-01-05T17:45:27.179Z,10.63
2018-01-05T17:47:56.347Z,7.70
2018-01-05T17:50:24.872Z,7.20
2018-01-05T17:52:53.248Z,7.60
2018-01-05T17:55:22.316Z,5.43
2018-01-05T17:57:50.624Z,5.30
2018-01-05T18:00:19.795Z,5.30
2018-01-05T18:02:48.616Z,5.23
2018-01-05T18:05:16.968Z,5.30
2018-01-05T18:07:45.317Z,5.50
2018-01-05T18:10:13.722Z,5.57
2018-01-05T18:12:42.260Z,6.63
2018-01-05T18:15:10.757Z,4.77
2018-01-05T18:17:39.109Z,7.37
2018-01-05T18:20:07.466Z,5.70
2018-01-05T18:22:35.813Z,7.07
2018-01-05T18:25:04.118Z,7.87
2018-01-05T18:27:33.238Z,7.67
2018-01-05T18:30:01.649Z,6.97
2018-01-05T18:32:30.010Z,9.00
2018-01-05T18:34:58.322Z,8.83
2018-01-05T18:37:26.852Z,9.10
2018-01-05T18:39:56.419Z,9.37
2018-01-05T18:42:24.728Z,9.10
2018-01-05T18:44:53.123Z,8.47
2018-01-05T18:47:21.747Z,9.03
2018-01-05T18:49:50.162Z,9.70
2018-01-05T18:52:19.249Z,10.93
2018-01-05T18:54:48.514Z,12.13
2018-01-05T18:57:22.171Z,12.17
2018-01-05T18:59:50.578Z,11.50
2018-01-05T19:02:18.942Z,12.93
2018-01-05T19:04:47.788Z,13.17
2018-01-05T19:07:16.167Z,12.70
2018-01-05T19:09:44.628Z,13.43
2018-01-05T19:12:13.102Z,21.77
2018-01-05T19:14:41.483Z,16.40
2018-01-05T19:17:09.983Z,14.13
2018-01-05T19:19:38.412Z,13.90
2018-01-05T19:22:06.724Z,9.60
2018-01-05T19:24:35.081Z,8.07
2018-01-05T19:27:03.473Z,7.50
2018-01-05T19:29:31.835Z,7.90
2018-01-05T19:32:00.373Z,8.73
2018-01-05T19:34:28.744Z,9.93
2018-01-05T19:36:57.882Z,9.90
2018-01-05T19:39:26.428Z,9.70
2018-01-05T19:41:54.800Z,8.87
2018-01-05T19:44:23.164Z,9.13
2018-01-05T19:46:51.582Z,10.00
2018-01-05T19:49:19.957Z,9.90
2018-01-05T19:51:48.336Z,9.07
2018-01-05T19:54:17.590Z,10.60
2018-01-05T19:56:45.946Z,10.07
2018-01-05T19:59:14.310Z,9.90
2018-01-05T20:01:42.721Z,9.20
2018-01-05T20:04:11.151Z,9.00
2018-01-05T20:06:40.286Z,8.60
2018-01-05T20:09:08.659Z,7.40
2018-01-05T20:11:37.104Z,8.00
2018-01-05T20:14:05.524Z,9.00
2018-01-05T20:16:33.902Z,8.90
2018-01-05T20:19:02.311Z,9.40
2018-01-05T20:21:30.680Z,10.50
2018-01-05T20:23:59.048Z,10.97
2018-01-05T20:26:27.564Z,10.47
2018-01-05T20:28:55.944Z,11.63
2018-01-05T20:31:24.319Z,10.73
2018-01-05T20:33:52.739Z,12.20
2018-01-05T20:36:21.113Z,11.10
2018-01-05T20:38:49.475Z,10.23
2018-01-05T20:41:18.687Z,11.80
2018-01-05T20:43:47.091Z,10.50
2018-01-05T20:46:15.459Z,10.27
2018-01-05T20:48:44.171Z,9.93
2018-01-05T20:51:12.531Z,9.60
2018-01-05T20:53:40.900Z,11.83
2018-01-05T20:56:09.327Z,10.50
2018-01-05T20:58:37.770Z,9.63
2018-01-05T21:01:06.139Z,10.27
2018-01-05T21:03:34.520Z,11.03
2018-01-05T21:06:02.937Z,11.90
2018-01-05T21:08:31.729Z,11.50
2018-01-05T21:11:00.096Z,11.30
2018-01-05T21:13:28.454Z,9.97
2018-01-05T21:15:56.891Z,11.40
2018-01-05T21:18:25.254Z,11.27
2018-01-05T21:20:53.633Z,12.90
2018-01-05T21:23:22.051Z,13.33
2018-01-05T21:25:50.459Z,12.80
2018-01-05T21:28:18.979Z,13.67
2018-01-05T21:30:47.459Z,12.90
2018-01-05T21:33:16.314Z,14.17
2018-01-05T21:35:44.705Z,12.97
2018-01-05T21:38:13.117Z,13.67
2018-01-05T21:40:41.543Z,18.93
2018-01-05T21:43:09.915Z,17.57
2018-01-05T21:45:38.386Z,27.20
2018-01-05T21:48:06.769Z,16.87
2018-01-05T21:53:15.417Z,17.50
2018-01-05T21:55:43.775Z,20.97
2018-01-05T21:58:12.137Z,23.40
2018-01-05T22:00:41.321Z,28.83
2018-01-05T22:03:09.700Z,31.20
2018-01-05T22:05:38.067Z,26.00
2018-01-05T22:08:06.543Z,25.77
2018-01-05T22:10:34.918Z,22.07
2018-01-05T22:13:03.229Z,18.40
2018-01-05T22:15:31.681Z,16.73
2018-01-05T22:17:59.991Z,19.30
2018-01-05T22:20:29.167Z,18.10
2018-01-05T22:22:57.614Z,18.23
2018-01-05T22:25:26.053Z,19.50
2018-01-05T22:27:55.180Z,18.47
2018-01-05T22:30:23.568Z,16.63
2018-01-05T22:32:51.938Z,16.40
2018-01-05T22:35:20.443Z,15.17
2018-01-05T22:37:48.872Z,17.10
2018-01-05T22:40:17.964Z,17.13
2018-01-05T22:42:47.097Z,14.83
2018-01-05T22:45:15.638Z,13.40
2018-01-05T22:47:43.959Z,14.43
2018-01-05T22:50:12.317Z,11.83
2018-01-05T22:52:40.725Z,12.93
2018-01-05T22:55:09.079Z,11.57
2018-01-05T22:57:37.523Z,10.50
2018-01-05T23:00:05.840Z,12.70
2018-01-05T23:02:34.195Z,11.13
2018-01-05T23:05:02.544Z,10.50
2018-01-05T23:07:30.898Z,12.43
2018-01-05T23:09:59.218Z,11.37
2018-01-05T23:12:27.907Z,10.53
2018-01-05T23:14:57.339Z,5.57
2018-01-05T23:17:26.415Z,5.03
2018-01-05T23:19:55.696Z,4.27
2018-01-05T23:22:24.603Z,4.87
2018-01-05T23:24:53.699Z,3.80
2018-01-05T23:27:22.108Z,3.47
2018-01-05T23:29:51.020Z,4.07
2018-01-05T23:32:19.674Z,5.43
2018-01-05T23:34:48.470Z,5.10
2018-01-05T23:37:16.914Z,4.67
2018-01-05T23:39:45.273Z,3.97
2018-01-05T23:42:14.390Z,3.93
2018-01-05T23:44:43.966Z,2.57
2018-01-05T23:47:12.752Z,3.60
2018-01-05T23:49:41.337Z,4.00
2018-01-05T23:52:09.904Z,5.00
2018-01-05T23:54:38.896Z,6.17
2018-01-05T23:57:08.307Z,5.17
2018-01-05T23:59:37.190Z,6.07
